createdAt,value
2022-08-28T00:02:21.451Z,18.91
2022-08-28T00:05:13.437Z,18.89
2022-08-28T00:08:03.162Z,18.86
2022-08-28T00:10:54.785Z,18.82
2022-08-28T00:13:47.261Z,18.83
2022-08-28T00:16:37.237Z,18.82
2022-08-28T00:19:28.256Z,18.83
2022-08-28T00:22:17.528Z,18.81
2022-08-28T00:25:08.304Z,18.80
2022-08-28T00:27:59.921Z,18.79
2022-08-28T00:30:52.619Z,18.79
2022-08-28T00:33:43.296Z,18.75
2022-08-28T00:36:33.978Z,18.75
2022-08-28T00:39:23.274Z,18.75
2022-08-28T00:42:12.618Z,18.72
2022-08-28T00:45:02.094Z,18.71
2022-08-28T00:47:52.509Z,18.68
2022-08-28T00:51:00.480Z,18.65
2022-08-28T00:53:55.575Z,18.65
2022-08-28T00:56:52.061Z,18.62
2022-08-28T00:59:42.620Z,18.58
2022-08-28T01:02:32.222Z,18.59
2022-08-28T01:05:23.040Z,18.54
2022-08-28T01:08:12.932Z,18.52
2022-08-28T01:11:08.296Z,18.49
2022-08-28T01:14:03.122Z,18.48
2022-08-28T01:16:56.109Z,18.45
2022-08-28T01:19:57.097Z,18.42
2022-08-28T01:22:59.227Z,18.41
2022-08-28T01:25:49.782Z,18.39
2022-08-28T01:28:39.711Z,18.35
2022-08-28T01:31:32.565Z,18.35
2022-08-28T01:34:22.383Z,18.33
2022-08-28T01:37:11.808Z,18.29
2022-08-28T01:40:01.514Z,18.30
2022-08-28T01:42:52.147Z,18.27
2022-08-28T01:45:41.908Z,18.23
2022-08-28T01:48:35.893Z,18.20
2022-08-28T01:51:28.519Z,18.19
2022-08-28T01:54:25.304Z,18.15
2022-08-28T01:57:14.676Z,18.12
2022-08-28T02:00:11.314Z,18.11
2022-08-28T02:03:04.031Z,18.09
2022-08-28T02:05:53.243Z,18.02
2022-08-28T02:08:42.649Z,18.00
2022-08-28T02:11:32.183Z,18.00
2022-08-28T02:14:22.718Z,17.97
2022-08-28T02:17:13.442Z,17.93
2022-08-28T02:20:02.888Z,17.96
2022-08-28T02:22:52.252Z,17.96
2022-08-28T02:25:41.835Z,17.91
2022-08-28T02:28:31.106Z,17.90
2022-08-28T02:31:20.336Z,17.87
2022-08-28T02:34:11.453Z,17.90
2022-08-28T02:37:00.899Z,17.87
2022-08-28T02:39:50.532Z,17.88
2022-08-28T02:42:40.070Z,17.87
2022-08-28T02:45:29.330Z,17.89
2022-08-28T02:48:19.028Z,17.86
2022-08-28T02:51:14.607Z,17.87
2022-08-28T02:54:04.246Z,17.85
2022-08-28T02:56:55.856Z,17.87
2022-08-28T02:59:47.778Z,17.87
2022-08-28T03:02:37.603Z,17.87
2022-08-28T03:05:28.360Z,17.85
2022-08-28T03:08:18.853Z,17.86
2022-08-28T03:11:09.366Z,17.88
2022-08-28T03:13:58.582Z,17.86
2022-08-28T03:16:48.077Z,17.88
2022-08-28T03:19:37.792Z,17.86
2022-08-28T03:22:41.153Z,17.84
2022-08-28T03:25:32.234Z,17.87
2022-08-28T03:28:21.721Z,17.86
2022-08-28T03:31:18.125Z,17.84
2022-08-28T03:34:08.051Z,17.83
2022-08-28T03:36:57.214Z,17.83
2022-08-28T03:39:49.899Z,17.84
2022-08-28T03:42:42.420Z,17.80
2022-08-28T03:45:41.595Z,17.84
2022-08-28T03:48:34.654Z,17.83
2022-08-28T03:51:29.611Z,17.83
2022-08-28T03:54:19.043Z,17.85
2022-08-28T03:57:08.287Z,17.83
2022-08-28T04:00:01.104Z,17.84
2022-08-28T04:02:50.431Z,17.83
2022-08-28T04:05:40.393Z,17.84
2022-08-28T04:08:30.539Z,17.85
2022-08-28T04:11:20.077Z,17.85
2022-08-28T04:14:09.434Z,17.83
2022-08-28T04:17:01.655Z,17.84
2022-08-28T04:19:54.363Z,17.83
2022-08-28T04:22:43.674Z,17.84
2022-08-28T04:25:34.528Z,17.82
2022-08-28T04:28:24.107Z,17.83
2022-08-28T04:31:13.910Z,17.83
2022-08-28T04:34:08.651Z,17.83
2022-08-28T04:36:58.486Z,17.84
2022-08-28T04:39:47.676Z,17.86
2022-08-28T04:42:37.838Z,17.84
2022-08-28T04:45:27.063Z,17.84
2022-08-28T04:48:16.633Z,17.83
2022-08-28T04:51:10.936Z,17.84
2022-08-28T04:54:04.477Z,17.85
2022-08-28T04:56:54.348Z,17.85
2022-08-28T04:59:45.052Z,17.84
2022-08-28T05:02:34.361Z,17.85
2022-08-28T05:05:23.807Z,17.87
2022-08-28T05:08:16.431Z,17.84
2022-08-28T05:11:14.618Z,17.83
2022-08-28T05:14:25.808Z,17.85
2022-08-28T05:17:16.975Z,17.89
2022-08-28T05:20:07.209Z,17.89
2022-08-28T05:22:58.110Z,17.89
2022-08-28T05:25:51.737Z,17.88
2022-08-28T05:28:41.667Z,17.89
2022-08-28T05:31:33.063Z,17.92
2022-08-28T05:34:22.287Z,17.92
2022-08-28T05:37:11.579Z,17.92
2022-08-28T05:40:04.335Z,17.93
2022-08-28T05:42:56.099Z,17.95
2022-08-28T05:45:45.807Z,17.97
2022-08-28T05:48:39.074Z,17.98
2022-08-28T05:51:30.049Z,18.00
2022-08-28T05:54:31.242Z,18.03
2022-08-28T05:57:20.702Z,18.04
2022-08-28T06:00:14.261Z,18.08
2022-08-28T06:03:07.024Z,18.10
2022-08-28T06:06:03.619Z,18.11
2022-08-28T06:08:59.461Z,18.14
2022-08-28T06:11:52.359Z,18.16
2022-08-28T06:14:41.457Z,18.19
2022-08-28T06:17:35.762Z,18.22
2022-08-28T06:20:25.862Z,18.27
2022-08-28T06:23:23.795Z,18.30
2022-08-28T06:26:13.526Z,18.35
2022-08-28T06:29:04.155Z,18.39
2022-08-28T06:32:01.725Z,18.44
2022-08-28T06:34:52.580Z,18.48
2022-08-28T06:37:41.813Z,18.55
2022-08-28T06:41:13.933Z,18.60
2022-08-28T06:44:03.661Z,18.68
2022-08-28T06:46:55.609Z,18.75
2022-08-28T06:49:44.785Z,18.79
2022-08-28T06:52:35.384Z,18.86
2022-08-28T06:55:27.026Z,18.94
2022-08-28T06:58:20.697Z,19.00
2022-08-28T07:01:14.013Z,19.06
2022-08-28T07:04:08.796Z,19.15
2022-08-28T07:06:58.367Z,19.22
2022-08-28T07:09:49.102Z,19.32
2022-08-28T07:12:38.257Z,19.37
2022-08-28T07:15:27.884Z,19.43
2022-08-28T07:18:18.465Z,19.46
2022-08-28T07:21:12.343Z,19.51
2022-08-28T07:24:03.368Z,19.56
2022-08-28T07:26:54.333Z,19.59
2022-08-28T07:29:43.501Z,19.62
2022-08-28T07:32:37.473Z,19.66
2022-08-28T07:35:29.375Z,19.71
2022-08-28T07:38:18.786Z,19.76
2022-08-28T07:41:16.023Z,19.83
2022-08-28T07:44:26.944Z,19.87
2022-08-28T07:47:16.423Z,19.95
2022-08-28T07:50:08.744Z,20.04
2022-08-28T07:52:57.840Z,20.10
2022-08-28T07:55:47.288Z,20.15
2022-08-28T07:58:36.329Z,20.21
2022-08-28T08:01:30.574Z,20.29
2022-08-28T08:04:22.683Z,20.38
2022-08-28T08:07:12.902Z,20.45
2022-08-28T08:10:02.060Z,20.54
2022-08-28T08:12:52.359Z,20.71
2022-08-28T08:15:42.662Z,20.89
2022-08-28T08:18:33.466Z,21.15
2022-08-28T08:21:29.575Z,21.42
2022-08-28T08:24:21.009Z,21.72
2022-08-28T08:27:10.667Z,21.94
2022-08-28T08:30:00.279Z,22.16
2022-08-28T08:32:49.358Z,22.40
2022-08-28T08:35:39.903Z,22.62
2022-08-28T08:38:31.473Z,22.91
2022-08-28T08:41:29.002Z,23.18
2022-08-28T08:44:33.203Z,23.50
2022-08-28T08:47:36.490Z,23.82
2022-08-28T08:50:30.362Z,24.11
2022-08-28T08:53:40.655Z,24.39
2022-08-28T08:56:34.797Z,24.61
2022-08-28T08:59:29.757Z,24.79
2022-08-28T09:02:31.220Z,24.95
2022-08-28T09:05:27.832Z,25.18
2022-08-28T09:08:44.588Z,25.28
2022-08-28T09:11:50.354Z,25.48
2022-08-28T09:15:04.932Z,25.54
2022-08-28T09:17:59.525Z,25.66
2022-08-28T09:20:52.717Z,25.87
2022-08-28T09:23:43.192Z,26.09
2022-08-28T09:26:36.445Z,26.39
2022-08-28T09:29:31.580Z,26.46
2022-08-28T09:32:26.218Z,26.48
2022-08-28T09:35:28.190Z,26.61
2022-08-28T09:38:27.942Z,26.97
2022-08-28T09:41:36.184Z,27.08
2022-08-28T09:44:25.434Z,27.26
2022-08-28T09:47:48.890Z,27.45
2022-08-28T09:50:41.661Z,27.75
2022-08-28T09:53:34.640Z,27.99
2022-08-28T09:56:32.100Z,28.17
2022-08-28T09:59:25.784Z,28.24
2022-08-28T10:02:27.551Z,28.28
2022-08-28T10:05:29.971Z,28.61
2022-08-28T10:08:43.449Z,28.75
2022-08-28T10:11:48.436Z,28.86
2022-08-28T10:14:57.775Z,28.94
2022-08-28T10:18:14.377Z,28.64
2022-08-28T10:21:15.951Z,28.69
2022-08-28T10:24:27.545Z,28.86
2022-08-28T10:27:41.446Z,28.99
2022-08-28T10:30:40.593Z,29.17
2022-08-28T10:33:50.353Z,29.27
2022-08-28T10:36:39.693Z,29.28
2022-08-28T10:39:44.313Z,29.28
2022-08-28T10:42:41.338Z,29.24
2022-08-28T10:45:34.639Z,29.24
2022-08-28T10:48:28.521Z,29.19
2022-08-28T10:51:34.876Z,29.07
2022-08-28T10:54:33.507Z,29.01
2022-08-28T10:57:39.238Z,29.30
2022-08-28T11:00:31.235Z,29.39
2022-08-28T11:03:41.069Z,29.36
2022-08-28T11:06:37.326Z,29.29
2022-08-28T11:09:36.911Z,29.19
2022-08-28T11:12:44.090Z,29.16
2022-08-28T11:15:52.563Z,29.13
2022-08-28T11:19:15.135Z,29.01
2022-08-28T11:22:12.698Z,28.96
2022-08-28T11:25:13.863Z,28.85
2022-08-28T11:28:43.308Z,28.66
2022-08-28T11:31:45.594Z,28.59
2022-08-28T11:35:02.167Z,28.56
2022-08-28T11:37:54.789Z,28.49
2022-08-28T11:41:13.238Z,28.33
2022-08-28T11:44:47.254Z,28.29
2022-08-28T11:47:56.286Z,28.22
2022-08-28T11:50:58.728Z,28.13
2022-08-28T11:54:01.801Z,28.03
2022-08-28T11:57:07.028Z,27.87
2022-08-28T12:00:08.410Z,27.76
2022-08-28T12:03:14.107Z,27.73
2022-08-28T12:06:05.272Z,27.65
2022-08-28T12:09:13.626Z,27.64
2022-08-28T12:12:10.492Z,27.64
2022-08-28T12:15:07.701Z,27.58
2022-08-28T12:18:01.452Z,27.57
2022-08-28T12:21:03.977Z,27.48
2022-08-28T12:24:09.196Z,27.46
2022-08-28T12:27:02.896Z,27.47
2022-08-28T12:29:56.186Z,27.51
2022-08-28T12:32:56.138Z,27.48
2022-08-28T12:35:46.924Z,27.52
2022-08-28T12:38:36.302Z,27.55
2022-08-28T12:41:26.537Z,27.52
2022-08-28T12:44:16.450Z,27.56
2022-08-28T12:47:07.304Z,27.62
2022-08-28T12:49:56.434Z,27.63
2022-08-28T12:52:53.046Z,27.67
2022-08-28T12:55:43.017Z,27.72
2022-08-28T12:58:35.805Z,27.76
2022-08-28T13:01:31.468Z,27.78
2022-08-28T13:04:34.745Z,27.83
2022-08-28T13:07:31.155Z,27.90
2022-08-28T13:10:26.666Z,27.94
2022-08-28T13:13:23.788Z,27.99
2022-08-28T13:16:34.686Z,27.96
2022-08-28T13:19:29.368Z,28.00
2022-08-28T13:22:39.622Z,28.08
2022-08-28T13:25:36.400Z,28.13
2022-08-28T13:28:25.899Z,28.00
2022-08-28T13:31:29.564Z,28.26
2022-08-28T13:34:26.200Z,28.69
2022-08-28T13:37:44.731Z,29.22
2022-08-28T13:41:00.492Z,29.44
2022-08-28T13:43:52.196Z,29.70
2022-08-28T13:46:41.752Z,29.91
2022-08-28T13:49:31.017Z,30.08
2022-08-28T13:52:20.358Z,30.23
2022-08-28T13:55:11.317Z,30.36
2022-08-28T13:58:01.891Z,30.53
2022-08-28T14:00:52.562Z,30.73
2022-08-28T14:03:41.465Z,31.00
2022-08-28T14:06:31.932Z,31.18
2022-08-28T14:09:22.660Z,31.34
2022-08-28T14:12:12.341Z,31.45
2022-08-28T14:15:03.936Z,31.54
2022-08-28T14:17:53.257Z,31.49
2022-08-28T14:20:42.537Z,31.36
2022-08-28T14:23:35.569Z,31.29
2022-08-28T14:26:24.728Z,31.23
2022-08-28T14:29:16.823Z,31.04
2022-08-28T14:32:07.749Z,30.82
2022-08-28T14:34:57.132Z,30.59
2022-08-28T14:37:46.391Z,30.37
2022-08-28T14:40:38.383Z,30.17
2022-08-28T14:43:27.900Z,30.05
2022-08-28T14:46:18.915Z,29.91
2022-08-28T14:49:13.884Z,29.72
2022-08-28T14:52:03.642Z,29.59
2022-08-28T14:54:53.157Z,29.45
2022-08-28T14:57:42.631Z,29.35
2022-08-28T15:00:42.414Z,29.27
2022-08-28T15:03:32.515Z,29.17
2022-08-28T15:06:24.004Z,29.08
2022-08-28T15:09:15.171Z,28.96
2022-08-28T15:12:05.136Z,28.84
2022-08-28T15:14:55.128Z,28.77
2022-08-28T15:17:46.549Z,28.70
2022-08-28T15:20:42.502Z,28.60
2022-08-28T15:23:33.466Z,28.59
2022-08-28T15:26:26.354Z,28.52
2022-08-28T15:29:16.628Z,28.44
2022-08-28T15:32:06.511Z,28.33
2022-08-28T15:34:55.765Z,28.20
2022-08-28T15:37:45.134Z,28.10
2022-08-28T15:40:53.646Z,27.98
2022-08-28T15:43:47.615Z,27.86
2022-08-28T15:46:37.231Z,27.73
2022-08-28T15:49:28.761Z,27.63
2022-08-28T15:52:19.549Z,27.56
2022-08-28T15:55:10.165Z,27.42
2022-08-28T15:58:00.777Z,27.27
2022-08-28T16:00:50.354Z,27.17
2022-08-28T16:03:40.542Z,27.09
2022-08-28T16:06:29.921Z,27.03
2022-08-28T16:09:19.309Z,26.97
2022-08-28T16:12:08.806Z,26.88
2022-08-28T16:14:59.430Z,26.80
2022-08-28T16:17:51.820Z,26.72
2022-08-28T16:20:44.031Z,26.62
2022-08-28T16:23:33.589Z,26.58
2022-08-28T16:26:22.870Z,26.50
2022-08-28T16:29:12.304Z,26.39
2022-08-28T16:32:03.226Z,26.31
2022-08-28T16:34:53.108Z,26.25
2022-08-28T16:37:42.673Z,26.18
2022-08-28T16:40:31.983Z,26.14
2022-08-28T16:43:21.514Z,26.07
2022-08-28T16:46:16.791Z,25.98
2022-08-28T16:49:07.446Z,25.93
2022-08-28T16:51:56.625Z,25.87
2022-08-28T16:54:48.373Z,25.82
2022-08-28T16:57:38.194Z,25.79
2022-08-28T17:00:28.449Z,25.75
2022-08-28T17:03:17.781Z,25.66
2022-08-28T17:06:16.861Z,25.59
2022-08-28T17:09:06.250Z,25.56
2022-08-28T17:11:55.515Z,25.53
2022-08-28T17:14:44.878Z,25.45
2022-08-28T17:17:34.676Z,25.38
2022-08-28T17:20:41.729Z,25.32
2022-08-28T17:23:32.401Z,25.25
2022-08-28T17:26:21.966Z,25.16
2022-08-28T17:29:11.907Z,25.07
2022-08-28T17:32:01.152Z,25.00
2022-08-28T17:34:50.492Z,24.91
2022-08-28T17:37:40.864Z,24.80
2022-08-28T17:40:31.648Z,24.70
2022-08-28T17:43:21.264Z,24.63
2022-08-28T17:46:10.880Z,24.57
2022-08-28T17:49:00.681Z,24.49
2022-08-28T17:51:51.098Z,24.39
2022-08-28T17:54:40.297Z,24.29
2022-08-28T17:57:31.279Z,24.21
2022-08-28T18:00:21.079Z,24.13
2022-08-28T18:03:10.546Z,24.01
2022-08-28T18:06:00.815Z,23.90
2022-08-28T18:08:52.004Z,23.80
2022-08-28T18:11:43.098Z,23.66
2022-08-28T18:14:33.727Z,23.53
2022-08-28T18:17:23.081Z,23.39
2022-08-28T18:20:13.639Z,23.23
2022-08-28T18:23:03.811Z,23.08
2022-08-28T18:25:53.340Z,22.97
2022-08-28T18:28:44.617Z,22.85
2022-08-28T18:31:35.539Z,22.72
2022-08-28T18:34:24.935Z,22.58
2022-08-28T18:37:14.205Z,22.42
2022-08-28T18:40:03.835Z,22.27
2022-08-28T18:42:53.894Z,22.13
2022-08-28T18:45:43.112Z,22.02
2022-08-28T18:48:34.326Z,21.90
2022-08-28T18:51:23.510Z,21.76
2022-08-28T18:54:53.500Z,21.61
2022-08-28T18:57:49.796Z,21.47
2022-08-28T19:00:41.285Z,21.33
2022-08-28T19:03:32.651Z,21.23
2022-08-28T19:06:23.391Z,21.11
2022-08-28T19:09:20.440Z,21.00
2022-08-28T19:12:10.397Z,20.85
2022-08-28T19:15:01.650Z,20.73
2022-08-28T19:17:50.818Z,20.64
2022-08-28T19:20:39.936Z,20.51
2022-08-28T19:23:30.447Z,20.42
2022-08-28T19:26:19.709Z,20.32
2022-08-28T19:29:10.106Z,20.20
2022-08-28T19:31:59.311Z,20.12
2022-08-28T19:34:50.433Z,20.03
2022-08-28T19:37:42.666Z,19.96
2022-08-28T19:40:33.721Z,19.88
2022-08-28T19:43:23.026Z,19.80
2022-08-28T19:46:19.900Z,19.70
2022-08-28T19:49:10.088Z,19.62
2022-08-28T19:51:59.281Z,19.52
2022-08-28T19:54:49.090Z,19.46
2022-08-28T19:57:39.737Z,19.39
2022-08-28T20:00:31.137Z,19.31
2022-08-28T20:03:22.760Z,19.21
2022-08-28T20:06:12.349Z,19.13
2022-08-28T20:09:03.091Z,19.06
2022-08-28T20:11:53.312Z,18.98
2022-08-28T20:14:44.753Z,18.94
2022-08-28T20:17:34.663Z,18.87
2022-08-28T20:20:56.859Z,18.77
2022-08-28T20:23:46.099Z,18.73
2022-08-28T20:26:35.748Z,18.68
2022-08-28T20:29:25.221Z,18.63
2022-08-28T20:32:15.820Z,18.58
2022-08-28T20:35:07.918Z,18.55
2022-08-28T20:37:57.302Z,18.55
2022-08-28T20:40:46.613Z,18.53
2022-08-28T20:43:36.732Z,18.50
2022-08-28T20:46:31.987Z,18.49
2022-08-28T20:49:23.764Z,18.46
2022-08-28T20:52:13.690Z,18.47
2022-08-28T20:55:02.835Z,18.49
2022-08-28T20:57:52.498Z,18.43
2022-08-28T21:00:42.112Z,18.44
2022-08-28T21:03:31.429Z,18.45
2022-08-28T21:06:22.047Z,18.44
2022-08-28T21:09:11.125Z,18.42
2022-08-28T21:12:00.428Z,18.42
2022-08-28T21:14:51.468Z,18.39
2022-08-28T21:17:41.993Z,18.37
2022-08-28T21:20:31.374Z,18.33
2022-08-28T21:23:21.996Z,18.30
2022-08-28T21:26:13.035Z,18.26
2022-08-28T21:29:02.535Z,18.28
2022-08-28T21:31:53.865Z,18.25
2022-08-28T21:34:45.600Z,18.19
2022-08-28T21:37:35.430Z,18.15
2022-08-28T21:40:26.126Z,18.10
2022-08-28T21:43:15.327Z,18.04
2022-08-28T21:46:06.287Z,17.99
2022-08-28T21:48:56.334Z,17.94
2022-08-28T21:51:45.669Z,17.88
2022-08-28T21:54:36.851Z,17.84
2022-08-28T21:57:28.275Z,17.81
2022-08-28T22:00:22.730Z,17.76
2022-08-28T22:03:11.934Z,17.72
2022-08-28T22:06:01.330Z,17.71
2022-08-28T22:08:52.151Z,17.65
2022-08-28T22:11:41.345Z,17.65
2022-08-28T22:14:32.580Z,17.61
2022-08-28T22:17:21.934Z,17.58
2022-08-28T22:20:12.218Z,17.51
2022-08-28T22:23:14.777Z,17.46
2022-08-28T22:26:06.512Z,17.45
2022-08-28T22:28:57.929Z,17.37
2022-08-28T22:31:48.551Z,17.34
2022-08-28T22:34:42.376Z,17.27
2022-08-28T22:37:31.619Z,17.21
2022-08-28T22:40:21.709Z,17.17
2022-08-28T22:43:10.939Z,17.13
2022-08-28T22:46:00.513Z,17.06
2022-08-28T22:48:52.172Z,17.03
2022-08-28T22:51:41.429Z,16.99
2022-08-28T22:54:33.208Z,16.92
2022-08-28T22:57:22.635Z,16.88
2022-08-28T23:00:18.090Z,16.83
2022-08-28T23:03:07.567Z,16.77
2022-08-28T23:05:58.341Z,16.77
2022-08-28T23:08:47.615Z,16.73
2022-08-28T23:11:38.615Z,16.73
2022-08-28T23:14:28.304Z,16.66
2022-08-28T23:17:18.614Z,16.64
2022-08-28T23:20:11.651Z,16.57
2022-08-28T23:23:03.569Z,16.53
2022-08-28T23:25:53.006Z,16.46
2022-08-28T23:28:43.502Z,16.42
2022-08-28T23:31:32.723Z,16.37
2022-08-28T23:34:21.919Z,16.33
2022-08-28T23:37:11.133Z,16.29
2022-08-28T23:40:01.860Z,16.23
2022-08-28T23:42:51.758Z,16.18
2022-08-28T23:45:42.510Z,16.16
2022-08-28T23:48:32.100Z,16.12
2022-08-28T23:51:22.749Z,16.08
2022-08-28T23:54:14.624Z,16.02
2022-08-28T23:57:06.556Z,15.96
2022-08-28T23:59:56.300Z,15.96
